sensor_id;sensor_type;location;lat;lon;timestamp;P1;durP1;ratioP1;P2;durP2;ratioP2
20038;SDS011;21737;42.868;25.320;2023-03-20T00:03:30;15.30;;;8.13;;
20038;SDS011;21737;42.868;25.320;2023-03-20T00:06:32;13.17;;;8.37;;
20038;SDS011;21737;42.868;25.320;2023-03-20T00:09:34;13.60;;;7.63;;
20038;SDS011;21737;42.868;25.320;2023-03-20T00:12:37;15.10;;;8.33;;
20038;SDS011;21737;42.868;25.320;2023-03-20T00:15:39;13.77;;;8.23;;
20038;SDS011;21737;42.868;25.320;2023-03-20T00:18:42;14.83;;;6.97;;
20038;SDS011;21737;42.868;25.320;2023-03-20T00:21:44;15.47;;;9.30;;
20038;SDS011;21737;42.868;25.320;2023-03-20T00:24:47;12.57;;;6.77;;
20038;SDS011;21737;42.868;25.320;2023-03-20T00:27:49;11.63;;;7.07;;
20038;SDS011;21737;42.868;25.320;2023-03-20T00:30:50;11.07;;;6.87;;
20038;SDS011;21737;42.868;25.320;2023-03-20T00:33:53;12.60;;;6.63;;
20038;SDS011;21737;42.868;25.320;2023-03-20T00:36:55;12.17;;;6.97;;
20038;SDS011;21737;42.868;25.320;2023-03-20T00:39:56;15.57;;;6.97;;
20038;SDS011;21737;42.868;25.320;2023-03-20T00:42:59;9.97;;;6.50;;
20038;SDS011;21737;42.868;25.320;2023-03-20T00:46:03;13.57;;;6.33;;
20038;SDS011;21737;42.868;25.320;2023-03-20T00:49:05;13.03;;;6.83;;
20038;SDS011;21737;42.868;25.320;2023-03-20T00:52:08;14.17;;;7.20;;
20038;SDS011;21737;42.868;25.320;2023-03-20T00:55:13;12.27;;;6.90;;
20038;SDS011;21737;42.868;25.320;2023-03-20T00:58:15;11.20;;;6.67;;
20038;SDS011;21737;42.868;25.320;2023-03-20T01:01:16;10.00;;;6.53;;
20038;SDS011;21737;42.868;25.320;2023-03-20T01:04:18;15.20;;;6.80;;
20038;SDS011;21737;42.868;25.320;2023-03-20T01:07:20;10.00;;;5.87;;
20038;SDS011;21737;42.868;25.320;2023-03-20T01:10:24;9.93;;;6.00;;
20038;SDS011;21737;42.868;25.320;2023-03-20T01:13:28;10.27;;;5.73;;
20038;SDS011;21737;42.868;25.320;2023-03-20T01:16:31;7.83;;;4.40;;
20038;SDS011;21737;42.868;25.320;2023-03-20T01:19:33;10.50;;;5.90;;
20038;SDS011;21737;42.868;25.320;2023-03-20T01:22:34;9.50;;;6.00;;
20038;SDS011;21737;42.868;25.320;2023-03-20T01:25:37;7.20;;;4.93;;
20038;SDS011;21737;42.868;25.320;2023-03-20T01:28:38;9.10;;;6.07;;
20038;SDS011;21737;42.868;25.320;2023-03-20T01:31:40;8.03;;;5.27;;
20038;SDS011;21737;42.868;25.320;2023-03-20T01:34:42;10.43;;;6.37;;
20038;SDS011;21737;42.868;25.320;2023-03-20T01:37:44;9.23;;;6.00;;
20038;SDS011;21737;42.868;25.320;2023-03-20T01:43:52;7.03;;;4.93;;
20038;SDS011;21737;42.868;25.320;2023-03-20T01:46:54;14.03;;;5.73;;
20038;SDS011;21737;42.868;25.320;2023-03-20T01:53:20;8.67;;;5.40;;
20038;SDS011;21737;42.868;25.320;2023-03-20T01:56:33;12.77;;;6.60;;
20038;SDS011;21737;42.868;25.320;2023-03-20T02:00:20;9.67;;;5.93;;
20038;SDS011;21737;42.868;25.320;2023-03-20T02:03:15;9.87;;;6.57;;
20038;SDS011;21737;42.868;25.320;2023-03-20T02:06:37;12.10;;;6.73;;
20038;SDS011;21737;42.868;25.320;2023-03-20T02:09:50;12.80;;;7.17;;
20038;SDS011;21737;42.868;25.320;2023-03-20T02:13:00;11.77;;;6.87;;
20038;SDS011;21737;42.868;25.320;2023-03-20T02:16:12;13.50;;;5.97;;
20038;SDS011;21737;42.868;25.320;2023-03-20T02:19:54;10.67;;;6.70;;
20038;SDS011;21737;42.868;25.320;2023-03-20T02:41:53;10.57;;;5.83;;
20038;SDS011;21737;42.868;25.320;2023-03-20T02:45:12;9.60;;;5.17;;
20038;SDS011;21737;42.868;25.320;2023-03-20T02:48:26;8.77;;;4.97;;
20038;SDS011;21737;42.868;25.320;2023-03-20T02:51:46;9.60;;;5.07;;
20038;SDS011;21737;42.868;25.320;2023-03-20T03:01:20;16.33;;;7.70;;
20038;SDS011;21737;42.868;25.320;2023-03-20T03:04:26;13.70;;;7.57;;
20038;SDS011;21737;42.868;25.320;2023-03-20T03:07:32;14.93;;;7.90;;
20038;SDS011;21737;42.868;25.320;2023-03-20T03:10:37;12.40;;;6.97;;
20038;SDS011;21737;42.868;25.320;2023-03-20T03:13:58;10.97;;;6.57;;
20038;SDS011;21737;42.868;25.320;2023-03-20T03:17:01;11.87;;;7.23;;
20038;SDS011;21737;42.868;25.320;2023-03-20T03:20:05;16.03;;;8.47;;
20038;SDS011;21737;42.868;25.320;2023-03-20T03:23:09;12.77;;;7.97;;
20038;SDS011;21737;42.868;25.320;2023-03-20T03:26:23;21.67;;;6.90;;
20038;SDS011;21737;42.868;25.320;2023-03-20T03:29:37;14.70;;;7.13;;
20038;SDS011;21737;42.868;25.320;2023-03-20T03:32:47;11.17;;;6.33;;
20038;SDS011;21737;42.868;25.320;2023-03-20T03:35:52;8.80;;;5.63;;
20038;SDS011;21737;42.868;25.320;2023-03-20T03:39:10;9.37;;;6.10;;
20038;SDS011;21737;42.868;25.320;2023-03-20T03:45:20;10.10;;;6.30;;
20038;SDS011;21737;42.868;25.320;2023-03-20T03:48:29;12.77;;;6.20;;
20038;SDS011;21737;42.868;25.320;2023-03-20T03:51:33;9.30;;;4.90;;
20038;SDS011;21737;42.868;25.320;2023-03-20T03:58:17;11.33;;;5.83;;
20038;SDS011;21737;42.868;25.320;2023-03-20T04:01:20;16.57;;;6.70;;
20038;SDS011;21737;42.868;25.320;2023-03-20T04:04:23;10.40;;;5.87;;
20038;SDS011;21737;42.868;25.320;2023-03-20T04:07:27;11.97;;;5.73;;
20038;SDS011;21737;42.868;25.320;2023-03-20T04:10:29;13.23;;;6.77;;
20038;SDS011;21737;42.868;25.320;2023-03-20T04:13:31;10.90;;;6.77;;
20038;SDS011;21737;42.868;25.320;2023-03-20T04:16:32;9.27;;;5.87;;
20038;SDS011;21737;42.868;25.320;2023-03-20T04:19:35;10.53;;;5.93;;
20038;SDS011;21737;42.868;25.320;2023-03-20T04:22:36;9.40;;;5.60;;
20038;SDS011;21737;42.868;25.320;2023-03-20T04:25:46;10.33;;;5.93;;
20038;SDS011;21737;42.868;25.320;2023-03-20T04:28:48;8.10;;;5.53;;
20038;SDS011;21737;42.868;25.320;2023-03-20T04:31:52;7.97;;;4.87;;
20038;SDS011;21737;42.868;25.320;2023-03-20T04:35:20;12.50;;;6.17;;
20038;SDS011;21737;42.868;25.320;2023-03-20T04:38:24;9.70;;;6.37;;
20038;SDS011;21737;42.868;25.320;2023-03-20T04:41:27;13.17;;;6.80;;
20038;SDS011;21737;42.868;25.320;2023-03-20T04:44:31;12.67;;;7.80;;
20038;SDS011;21737;42.868;25.320;2023-03-20T04:47:35;15.40;;;7.33;;
20038;SDS011;21737;42.868;25.320;2023-03-20T04:50:38;12.50;;;6.83;;
20038;SDS011;21737;42.868;25.320;2023-03-20T04:53:40;12.30;;;7.03;;
20038;SDS011;21737;42.868;25.320;2023-03-20T04:56:42;11.30;;;6.10;;
20038;SDS011;21737;42.868;25.320;2023-03-20T04:59:48;15.67;;;7.50;;
20038;SDS011;21737;42.868;25.320;2023-03-20T05:02:51;19.80;;;12.00;;
20038;SDS011;21737;42.868;25.320;2023-03-20T05:05:52;25.87;;;15.63;;
20038;SDS011;21737;42.868;25.320;2023-03-20T05:08:54;21.63;;;14.27;;
20038;SDS011;21737;42.868;25.320;2023-03-20T05:11:56;13.20;;;8.50;;
20038;SDS011;21737;42.868;25.320;2023-03-20T05:15:17;16.17;;;8.00;;
20038;SDS011;21737;42.868;25.320;2023-03-20T05:18:37;14.83;;;7.70;;
20038;SDS011;21737;42.868;25.320;2023-03-20T05:21:47;13.77;;;7.90;;
20038;SDS011;21737;42.868;25.320;2023-03-20T05:24:49;14.53;;;8.90;;
20038;SDS011;21737;42.868;25.320;2023-03-20T05:28:11;18.37;;;9.83;;
20038;SDS011;21737;42.868;25.320;2023-03-20T05:31:32;18.23;;;8.83;;
20038;SDS011;21737;42.868;25.320;2023-03-20T05:35:04;16.90;;;8.70;;
20038;SDS011;21737;42.868;25.320;2023-03-20T05:38:21;16.37;;;8.40;;
20038;SDS011;21737;42.868;25.320;2023-03-20T05:41:37;16.87;;;7.77;;
20038;SDS011;21737;42.868;25.320;2023-03-20T05:44:38;9.30;;;5.13;;
20038;SDS011;21737;42.868;25.320;2023-03-20T05:48:04;18.53;;;6.13;;
20038;SDS011;21737;42.868;25.320;2023-03-20T05:51:09;17.50;;;6.90;;
20038;SDS011;21737;42.868;25.320;2023-03-20T05:54:30;22.40;;;9.13;;
20038;SDS011;21737;42.868;25.320;2023-03-20T05:57:41;14.77;;;8.20;;
20038;SDS011;21737;42.868;25.320;2023-03-20T06:01:12;11.57;;;6.10;;
20038;SDS011;21737;42.868;25.320;2023-03-20T06:04:45;10.80;;;6.60;;
20038;SDS011;21737;42.868;25.320;2023-03-20T06:07:59;10.17;;;5.70;;
20038;SDS011;21737;42.868;25.320;2023-03-20T06:11:02;8.93;;;5.10;;
20038;SDS011;21737;42.868;25.320;2023-03-20T06:14:06;8.77;;;5.37;;
20038;SDS011;21737;42.868;25.320;2023-03-20T06:17:14;21.83;;;9.70;;
20038;SDS011;21737;42.868;25.320;2023-03-20T06:20:23;31.10;;;17.67;;
20038;SDS011;21737;42.868;25.320;2023-03-20T06:23:26;57.43;;;34.90;;
20038;SDS011;21737;42.868;25.320;2023-03-20T06:26:28;40.60;;;23.30;;
20038;SDS011;21737;42.868;25.320;2023-03-20T06:29:35;33.47;;;18.40;;
20038;SDS011;21737;42.868;25.320;2023-03-20T06:32:47;36.27;;;21.77;;
20038;SDS011;21737;42.868;25.320;2023-03-20T06:35:51;30.37;;;20.07;;
20038;SDS011;21737;42.868;25.320;2023-03-20T06:38:54;42.77;;;25.00;;
20038;SDS011;21737;42.868;25.320;2023-03-20T06:41:57;47.10;;;21.20;;
20038;SDS011;21737;42.868;25.320;2023-03-20T06:44:59;33.03;;;19.10;;
20038;SDS011;21737;42.868;25.320;2023-03-20T06:48:16;32.13;;;17.03;;
20038;SDS011;21737;42.868;25.320;2023-03-20T06:51:22;25.17;;;15.87;;
20038;SDS011;21737;42.868;25.320;2023-03-20T06:54:27;33.33;;;16.37;;
20038;SDS011;21737;42.868;25.320;2023-03-20T06:57:28;22.60;;;13.03;;
20038;SDS011;21737;42.868;25.320;2023-03-20T07:00:30;38.50;;;14.80;;
20038;SDS011;21737;42.868;25.320;2023-03-20T07:03:36;29.00;;;13.37;;
20038;SDS011;21737;42.868;25.320;2023-03-20T07:06:38;26.97;;;13.67;;
20038;SDS011;21737;42.868;25.320;2023-03-20T07:09:40;19.00;;;11.47;;
20038;SDS011;21737;42.868;25.320;2023-03-20T07:12:42;21.30;;;10.93;;
20038;SDS011;21737;42.868;25.320;2023-03-20T07:15:45;19.77;;;10.40;;
20038;SDS011;21737;42.868;25.320;2023-03-20T07:19:08;18.17;;;9.40;;
20038;SDS011;21737;42.868;25.320;2023-03-20T07:22:18;21.13;;;10.23;;
20038;SDS011;21737;42.868;25.320;2023-03-20T07:25:21;22.87;;;10.63;;
20038;SDS011;21737;42.868;25.320;2023-03-20T07:28:45;13.67;;;9.37;;
20038;SDS011;21737;42.868;25.320;2023-03-20T07:31:53;17.37;;;9.83;;
20038;SDS011;21737;42.868;25.320;2023-03-20T07:35:02;14.13;;;10.40;;
20038;SDS011;21737;42.868;25.320;2023-03-20T07:38:05;20.63;;;9.53;;
20038;SDS011;21737;42.868;25.320;2023-03-20T07:41:14;12.33;;;8.00;;
20038;SDS011;21737;42.868;25.320;2023-03-20T07:44:26;17.07;;;7.83;;
20038;SDS011;21737;42.868;25.320;2023-03-20T07:47:29;14.77;;;7.57;;
20038;SDS011;21737;42.868;25.320;2023-03-20T07:50:31;18.70;;;7.83;;
20038;SDS011;21737;42.868;25.320;2023-03-20T07:53:32;12.30;;;7.23;;
20038;SDS011;21737;42.868;25.320;2023-03-20T07:56:34;15.87;;;7.53;;
20038;SDS011;21737;42.868;25.320;2023-03-20T07:59:36;12.40;;;7.13;;
20038;SDS011;21737;42.868;25.320;2023-03-20T08:02:38;10.23;;;5.87;;
20038;SDS011;21737;42.868;25.320;2023-03-20T08:05:40;6.47;;;4.37;;
20038;SDS011;21737;42.868;25.320;2023-03-20T08:08:47;11.23;;;5.03;;
20038;SDS011;21737;42.868;25.320;2023-03-20T08:11:52;11.73;;;5.60;;
20038;SDS011;21737;42.868;25.320;2023-03-20T08:14:54;17.10;;;9.17;;
20038;SDS011;21737;42.868;25.320;2023-03-20T08:17:55;18.13;;;13.80;;
20038;SDS011;21737;42.868;25.320;2023-03-20T08:20:59;9.83;;;7.70;;
20038;SDS011;21737;42.868;25.320;2023-03-20T08:24:00;6.93;;;4.93;;
20038;SDS011;21737;42.868;25.320;2023-03-20T08:27:02;6.72;;;4.10;;
20038;SDS011;21737;42.868;25.320;2023-03-20T08:30:04;5.65;;;4.50;;
20038;SDS011;21737;42.868;25.320;2023-03-20T08:33:06;9.63;;;4.87;;
20038;SDS011;21737;42.868;25.320;2023-03-20T08:36:08;6.53;;;5.17;;
20038;SDS011;21737;42.868;25.320;2023-03-20T08:39:10;5.73;;;4.17;;
20038;SDS011;21737;42.868;25.320;2023-03-20T08:42:12;9.53;;;6.80;;
20038;SDS011;21737;42.868;25.320;2023-03-20T08:45:13;15.73;;;7.43;;
20038;SDS011;21737;42.868;25.320;2023-03-20T08:48:16;12.90;;;4.60;;
20038;SDS011;21737;42.868;25.320;2023-03-20T08:51:18;7.37;;;4.23;;
20038;SDS011;21737;42.868;25.320;2023-03-20T08:54:19;6.63;;;4.80;;
20038;SDS011;21737;42.868;25.320;2023-03-20T08:57:21;7.53;;;3.73;;
20038;SDS011;21737;42.868;25.320;2023-03-20T09:00:23;7.50;;;4.53;;
20038;SDS011;21737;42.868;25.320;2023-03-20T09:03:25;5.37;;;4.13;;
20038;SDS011;21737;42.868;25.320;2023-03-20T09:06:26;7.03;;;4.43;;
20038;SDS011;21737;42.868;25.320;2023-03-20T09:09:28;5.97;;;4.27;;
20038;SDS011;21737;42.868;25.320;2023-03-20T09:12:31;5.00;;;3.67;;
20038;SDS011;21737;42.868;25.320;2023-03-20T09:15:34;5.80;;;3.43;;
20038;SDS011;21737;42.868;25.320;2023-03-20T09:18:36;3.43;;;2.93;;
20038;SDS011;21737;42.868;25.320;2023-03-20T09:21:38;6.47;;;3.87;;
20038;SDS011;21737;42.868;25.320;2023-03-20T09:24:42;4.07;;;3.20;;
20038;SDS011;21737;42.868;25.320;2023-03-20T09:27:44;4.27;;;2.90;;
20038;SDS011;21737;42.868;25.320;2023-03-20T09:30:46;5.30;;;3.47;;
20038;SDS011;21737;42.868;25.320;2023-03-20T09:33:48;5.20;;;3.50;;
20038;SDS011;21737;42.868;25.320;2023-03-20T09:36:50;5.50;;;3.10;;
20038;SDS011;21737;42.868;25.320;2023-03-20T09:39:52;4.67;;;3.50;;
20038;SDS011;21737;42.868;25.320;2023-03-20T09:52:48;5.57;;;4.17;;
20038;SDS011;21737;42.868;25.320;2023-03-20T09:55:53;4.63;;;3.17;;
20038;SDS011;21737;42.868;25.320;2023-03-20T09:59:01;4.80;;;3.20;;
20038;SDS011;21737;42.868;25.320;2023-03-20T10:02:05;5.73;;;4.00;;
20038;SDS011;21737;42.868;25.320;2023-03-20T10:05:13;4.93;;;3.47;;
20038;SDS011;21737;42.868;25.320;2023-03-20T10:08:17;4.00;;;2.93;;
20038;SDS011;21737;42.868;25.320;2023-03-20T10:14:44;4.20;;;3.40;;
20038;SDS011;21737;42.868;25.320;2023-03-20T10:27:33;3.87;;;3.13;;
20038;SDS011;21737;42.868;25.320;2023-03-20T10:39:59;4.33;;;3.70;;
20038;SDS011;21737;42.868;25.320;2023-03-20T10:43:14;5.40;;;4.20;;
20038;SDS011;21737;42.868;25.320;2023-03-20T10:46:39;8.53;;;3.53;;
20038;SDS011;21737;42.868;25.320;2023-03-20T10:49:42;4.40;;;3.10;;
20038;SDS011;21737;42.868;25.320;2023-03-20T10:52:47;6.23;;;3.30;;
20038;SDS011;21737;42.868;25.320;2023-03-20T10:55:50;4.77;;;3.37;;
20038;SDS011;21737;42.868;25.320;2023-03-20T10:58:56;6.30;;;3.63;;
20038;SDS011;21737;42.868;25.320;2023-03-20T11:01:59;5.40;;;3.13;;
20038;SDS011;21737;42.868;25.320;2023-03-20T11:05:05;5.67;;;3.53;;
20038;SDS011;21737;42.868;25.320;2023-03-20T11:08:11;5.97;;;3.40;;
20038;SDS011;21737;42.868;25.320;2023-03-20T11:11:14;5.73;;;4.00;;
20038;SDS011;21737;42.868;25.320;2023-03-20T11:14:22;7.53;;;3.67;;
20038;SDS011;21737;42.868;25.320;2023-03-20T11:17:27;6.63;;;4.30;;
20038;SDS011;21737;42.868;25.320;2023-03-20T11:20:33;5.20;;;3.33;;
20038;SDS011;21737;42.868;25.320;2023-03-20T11:23:35;5.27;;;3.30;;
20038;SDS011;21737;42.868;25.320;2023-03-20T11:26:37;7.57;;;4.53;;
20038;SDS011;21737;42.868;25.320;2023-03-20T11:29:40;3.97;;;2.80;;
20038;SDS011;21737;42.868;25.320;2023-03-20T11:32:46;3.43;;;3.00;;
20038;SDS011;21737;42.868;25.320;2023-03-20T11:35:49;5.77;;;3.43;;
20038;SDS011;21737;42.868;25.320;2023-03-20T11:38:53;3.93;;;2.97;;
20038;SDS011;21737;42.868;25.320;2023-03-20T11:41:59;4.47;;;3.27;;
20038;SDS011;21737;42.868;25.320;2023-03-20T11:45:12;5.60;;;3.37;;
20038;SDS011;21737;42.868;25.320;2023-03-20T11:48:36;6.77;;;3.73;;
20038;SDS011;21737;42.868;25.320;2023-03-20T11:51:38;3.90;;;3.13;;
20038;SDS011;21737;42.868;25.320;2023-03-20T11:54:44;3.87;;;3.10;;
20038;SDS011;21737;42.868;25.320;2023-03-20T11:57:47;5.57;;;3.60;;
20038;SDS011;21737;42.868;25.320;2023-03-20T12:00:49;4.77;;;3.83;;
20038;SDS011;21737;42.868;25.320;2023-03-20T12:10:18;6.80;;;5.90;;
20038;SDS011;21737;42.868;25.320;2023-03-20T12:13:23;4.03;;;3.30;;
20038;SDS011;21737;42.868;25.320;2023-03-20T12:16:26;4.67;;;3.73;;
20038;SDS011;21737;42.868;25.320;2023-03-20T12:19:30;4.83;;;3.67;;
20038;SDS011;21737;42.868;25.320;2023-03-20T12:22:34;6.43;;;3.03;;
20038;SDS011;21737;42.868;25.320;2023-03-20T12:25:46;2.60;;;2.27;;
20038;SDS011;21737;42.868;25.320;2023-03-20T12:32:54;5.13;;;3.10;;
20038;SDS011;21737;42.868;25.320;2023-03-20T12:35:36;4.40;;;2.90;;
20038;SDS011;21737;42.868;25.320;2023-03-20T12:38:41;4.20;;;3.30;;
20038;SDS011;21737;42.868;25.320;2023-03-20T12:54:25;4.17;;;3.23;;
20038;SDS011;21737;42.868;25.320;2023-03-20T12:57:35;7.60;;;3.37;;
20038;SDS011;21737;42.868;25.320;2023-03-20T13:07:06;9.17;;;5.10;;
20038;SDS011;21737;42.868;25.320;2023-03-20T13:10:21;5.17;;;3.60;;
20038;SDS011;21737;42.868;25.320;2023-03-20T13:13:32;4.10;;;3.37;;
20038;SDS011;21737;42.868;25.320;2023-03-20T13:20:27;10.00;;;4.07;;
20038;SDS011;21737;42.868;25.320;2023-03-20T13:26:40;6.77;;;4.17;;
20038;SDS011;21737;42.868;25.320;2023-03-20T13:33:02;5.83;;;3.73;;
20038;SDS011;21737;42.868;25.320;2023-03-20T13:39:13;5.10;;;3.90;;
20038;SDS011;21737;42.868;25.320;2023-03-20T13:42:17;4.70;;;3.83;;
20038;SDS011;21737;42.868;25.320;2023-03-20T13:45:26;5.70;;;3.93;;
20038;SDS011;21737;42.868;25.320;2023-03-20T13:48:33;12.90;;;4.37;;
20038;SDS011;21737;42.868;25.320;2023-03-20T13:51:50;9.47;;;4.83;;
20038;SDS011;21737;42.868;25.320;2023-03-20T13:54:59;7.10;;;4.80;;
20038;SDS011;21737;42.868;25.320;2023-03-20T14:04:45;5.13;;;4.30;;
20038;SDS011;21737;42.868;25.320;2023-03-20T14:07:48;7.53;;;4.13;;
20038;SDS011;21737;42.868;25.320;2023-03-20T14:11:33;7.17;;;4.57;;
20038;SDS011;21737;42.868;25.320;2023-03-20T14:14:23;10.50;;;4.97;;
20038;SDS011;21737;42.868;25.320;2023-03-20T14:26:34;9.30;;;5.07;;
20038;SDS011;21737;42.868;25.320;2023-03-20T14:29:38;5.13;;;4.13;;
20038;SDS011;21737;42.868;25.320;2023-03-20T14:32:56;5.83;;;4.37;;
20038;SDS011;21737;42.868;25.320;2023-03-20T14:36:26;47.00;;;8.80;;
20038;SDS011;21737;42.868;25.320;2023-03-20T14:42:47;7.47;;;4.73;;
20038;SDS011;21737;42.868;25.320;2023-03-20T14:45:53;6.63;;;4.30;;
20038;SDS011;21737;42.868;25.320;2023-03-20T14:48:58;6.03;;;4.10;;
20038;SDS011;21737;42.868;25.320;2023-03-20T15:01:45;7.23;;;4.57;;
20038;SDS011;21737;42.868;25.320;2023-03-20T15:04:48;11.37;;;5.80;;
20038;SDS011;21737;42.868;25.320;2023-03-20T15:07:50;9.30;;;4.97;;
20038;SDS011;21737;42.868;25.320;2023-03-20T15:10:53;9.43;;;5.83;;
20038;SDS011;21737;42.868;25.320;2023-03-20T15:13:57;7.57;;;5.17;;
20038;SDS011;21737;42.868;25.320;2023-03-20T15:16:59;7.37;;;4.63;;
20038;SDS011;21737;42.868;25.320;2023-03-20T15:20:09;5.97;;;4.73;;
20038;SDS011;21737;42.868;25.320;2023-03-20T15:23:12;8.73;;;5.40;;
20038;SDS011;21737;42.868;25.320;2023-03-20T15:26:15;20.77;;;7.63;;
20038;SDS011;21737;42.868;25.320;2023-03-20T15:29:17;9.53;;;5.87;;
20038;SDS011;21737;42.868;25.320;2023-03-20T15:32:21;11.00;;;7.30;;
20038;SDS011;21737;42.868;25.320;2023-03-20T15:35:25;15.07;;;8.03;;
20038;SDS011;21737;42.868;25.320;2023-03-20T15:38:28;11.33;;;8.33;;
20038;SDS011;21737;42.868;25.320;2023-03-20T15:41:31;14.50;;;7.63;;
20038;SDS011;21737;42.868;25.320;2023-03-20T15:44:36;11.43;;;7.07;;
20038;SDS011;21737;42.868;25.320;2023-03-20T15:47:38;11.80;;;5.63;;
20038;SDS011;21737;42.868;25.320;2023-03-20T15:50:43;9.80;;;6.30;;
20038;SDS011;21737;42.868;25.320;2023-03-20T15:53:46;12.40;;;8.53;;
20038;SDS011;21737;42.868;25.320;2023-03-20T15:56:49;13.70;;;7.33;;
20038;SDS011;21737;42.868;25.320;2023-03-20T15:59:52;8.47;;;6.90;;
20038;SDS011;21737;42.868;25.320;2023-03-20T16:02:53;11.00;;;7.10;;
20038;SDS011;21737;42.868;25.320;2023-03-20T16:05:57;11.27;;;8.50;;
20038;SDS011;21737;42.868;25.320;2023-03-20T16:09:00;8.97;;;6.20;;
20038;SDS011;21737;42.868;25.320;2023-03-20T16:12:06;11.30;;;6.67;;
20038;SDS011;21737;42.868;25.320;2023-03-20T16:15:15;19.90;;;7.80;;
20038;SDS011;21737;42.868;25.320;2023-03-20T16:18:17;27.30;;;9.30;;
20038;SDS011;21737;42.868;25.320;2023-03-20T16:21:37;18.80;;;9.70;;
20038;SDS011;21737;42.868;25.320;2023-03-20T16:24:40;27.70;;;12.30;;
20038;SDS011;21737;42.868;25.320;2023-03-20T16:27:48;18.50;;;10.77;;
20038;SDS011;21737;42.868;25.320;2023-03-20T16:30:54;22.97;;;12.03;;
20038;SDS011;21737;42.868;25.320;2023-03-20T16:34:08;39.63;;;15.93;;
20038;SDS011;21737;42.868;25.320;2023-03-20T16:37:43;21.13;;;15.77;;
20038;SDS011;21737;42.868;25.320;2023-03-20T16:40:43;25.43;;;14.50;;
20038;SDS011;21737;42.868;25.320;2023-03-20T16:43:48;38.57;;;21.77;;
20038;SDS011;21737;42.868;25.320;2023-03-20T16:52:56;55.20;;;32.33;;
20038;SDS011;21737;42.868;25.320;2023-03-20T16:55:59;47.53;;;31.77;;
20038;SDS011;21737;42.868;25.320;2023-03-20T16:59:06;36.57;;;21.33;;
20038;SDS011;21737;42.868;25.320;2023-03-20T17:02:57;31.63;;;17.00;;
20038;SDS011;21737;42.868;25.320;2023-03-20T17:05:41;35.77;;;17.57;;
20038;SDS011;21737;42.868;25.320;2023-03-20T17:08:45;33.50;;;19.20;;
20038;SDS011;21737;42.868;25.320;2023-03-20T17:12:04;32.20;;;20.67;;
20038;SDS011;21737;42.868;25.320;2023-03-20T17:15:06;48.60;;;26.60;;
20038;SDS011;21737;42.868;25.320;2023-03-20T17:18:10;51.83;;;28.97;;
20038;SDS011;21737;42.868;25.320;2023-03-20T17:21:18;55.10;;;29.63;;
20038;SDS011;21737;42.868;25.320;2023-03-20T17:24:21;44.50;;;24.20;;
20038;SDS011;21737;42.868;25.320;2023-03-20T17:27:29;48.43;;;23.70;;
20038;SDS011;21737;42.868;25.320;2023-03-20T17:30:31;52.20;;;29.60;;
20038;SDS011;21737;42.868;25.320;2023-03-20T17:33:32;62.77;;;34.83;;
20038;SDS011;21737;42.868;25.320;2023-03-20T17:36:37;66.70;;;39.87;;
20038;SDS011;21737;42.868;25.320;2023-03-20T17:39:42;67.40;;;38.07;;
20038;SDS011;21737;42.868;25.320;2023-03-20T17:42:46;53.33;;;33.93;;
20038;SDS011;21737;42.868;25.320;2023-03-20T17:45:51;46.17;;;26.30;;
20038;SDS011;21737;42.868;25.320;2023-03-20T17:49:09;44.40;;;26.27;;
20038;SDS011;21737;42.868;25.320;2023-03-20T17:52:14;45.30;;;26.03;;
20038;SDS011;21737;42.868;25.320;2023-03-20T17:55:19;34.90;;;21.63;;
20038;SDS011;21737;42.868;25.320;2023-03-20T17:58:21;29.27;;;18.83;;
20038;SDS011;21737;42.868;25.320;2023-03-20T18:01:23;37.17;;;23.43;;
20038;SDS011;21737;42.868;25.320;2023-03-20T18:04:25;36.33;;;24.00;;
20038;SDS011;21737;42.868;25.320;2023-03-20T18:07:27;33.73;;;19.50;;
20038;SDS011;21737;42.868;25.320;2023-03-20T18:10:29;29.13;;;18.13;;
20038;SDS011;21737;42.868;25.320;2023-03-20T18:13:35;33.70;;;19.30;;
20038;SDS011;21737;42.868;25.320;2023-03-20T18:16:37;38.87;;;23.73;;
20038;SDS011;21737;42.868;25.320;2023-03-20T18:19:42;39.77;;;23.97;;
20038;SDS011;21737;42.868;25.320;2023-03-20T18:22:44;39.57;;;20.60;;
20038;SDS011;21737;42.868;25.320;2023-03-20T18:25:46;30.37;;;19.93;;
20038;SDS011;21737;42.868;25.320;2023-03-20T18:28:48;37.90;;;20.43;;
20038;SDS011;21737;42.868;25.320;2023-03-20T18:31:50;30.60;;;17.73;;
20038;SDS011;21737;42.868;25.320;2023-03-20T18:34:52;37.30;;;18.70;;
20038;SDS011;21737;42.868;25.320;2023-03-20T18:37:53;27.80;;;16.67;;
20038;SDS011;21737;42.868;25.320;2023-03-20T18:40:55;31.70;;;18.37;;
20038;SDS011;21737;42.868;25.320;2023-03-20T18:43:57;30.80;;;19.80;;
20038;SDS011;21737;42.868;25.320;2023-03-20T18:46:59;31.63;;;18.43;;
20038;SDS011;21737;42.868;25.320;2023-03-20T18:50:01;28.07;;;16.57;;
20038;SDS011;21737;42.868;25.320;2023-03-20T18:53:05;27.07;;;15.17;;
20038;SDS011;21737;42.868;25.320;2023-03-20T18:59:20;28.33;;;14.70;;
20038;SDS011;21737;42.868;25.320;2023-03-20T19:02:22;26.60;;;15.07;;
20038;SDS011;21737;42.868;25.320;2023-03-20T19:05:25;21.73;;;12.87;;
20038;SDS011;21737;42.868;25.320;2023-03-20T19:08:29;23.23;;;16.20;;
20038;SDS011;21737;42.868;25.320;2023-03-20T19:11:36;20.83;;;12.17;;
20038;SDS011;21737;42.868;25.320;2023-03-20T19:14:38;17.80;;;11.00;;
20038;SDS011;21737;42.868;25.320;2023-03-20T19:17:41;18.20;;;11.83;;
20038;SDS011;21737;42.868;25.320;2023-03-20T19:20:46;20.63;;;13.00;;
20038;SDS011;21737;42.868;25.320;2023-03-20T19:23:49;20.60;;;13.13;;
20038;SDS011;21737;42.868;25.320;2023-03-20T19:26:50;20.90;;;12.20;;
20038;SDS011;21737;42.868;25.320;2023-03-20T19:29:59;21.30;;;12.50;;
20038;SDS011;21737;42.868;25.320;2023-03-20T19:33:06;17.63;;;11.43;;
20038;SDS011;21737;42.868;25.320;2023-03-20T19:39:35;17.97;;;10.93;;
20038;SDS011;21737;42.868;25.320;2023-03-20T19:42:40;20.60;;;10.10;;
20038;SDS011;21737;42.868;25.320;2023-03-20T19:46:01;15.90;;;10.37;;
20038;SDS011;21737;42.868;25.320;2023-03-20T19:49:03;17.67;;;9.43;;
20038;SDS011;21737;42.868;25.320;2023-03-20T19:52:08;13.33;;;8.00;;
20038;SDS011;21737;42.868;25.320;2023-03-20T19:55:17;15.57;;;8.10;;
20038;SDS011;21737;42.868;25.320;2023-03-20T19:58:19;18.30;;;10.10;;
20038;SDS011;21737;42.868;25.320;2023-03-20T20:01:24;17.03;;;10.30;;
20038;SDS011;21737;42.868;25.320;2023-03-20T20:04:26;17.20;;;10.50;;
20038;SDS011;21737;42.868;25.320;2023-03-20T20:07:31;17.57;;;9.93;;
20038;SDS011;21737;42.868;25.320;2023-03-20T20:10:53;16.47;;;10.07;;
20038;SDS011;21737;42.868;25.320;2023-03-20T20:13:54;16.37;;;8.70;;
20038;SDS011;21737;42.868;25.320;2023-03-20T20:17:16;15.53;;;9.90;;
20038;SDS011;21737;42.868;25.320;2023-03-20T20:20:19;15.57;;;8.60;;
20038;SDS011;21737;42.868;25.320;2023-03-20T20:23:26;12.57;;;8.17;;
20038;SDS011;21737;42.868;25.320;2023-03-20T20:26:28;15.93;;;9.17;;
20038;SDS011;21737;42.868;25.320;2023-03-20T20:29:35;20.70;;;11.50;;
20038;SDS011;21737;42.868;25.320;2023-03-20T20:32:42;18.33;;;11.23;;
20038;SDS011;21737;42.868;25.320;2023-03-20T20:35:45;17.03;;;9.87;;
20038;SDS011;21737;42.868;25.320;2023-03-20T20:39:10;16.00;;;9.73;;
20038;SDS011;21737;42.868;25.320;2023-03-20T20:42:12;15.67;;;8.70;;
20038;SDS011;21737;42.868;25.320;2023-03-20T20:45:14;15.67;;;8.70;;
20038;SDS011;21737;42.868;25.320;2023-03-20T20:48:16;13.00;;;8.10;;